sensor_id;sensor_type;location;lat;lon;timestamp;P1;durP1;ratioP1;P2;durP2;ratioP2
10450;SDS011;5273;51.290;6.918;2023-03-01T00:01:26;6.30;;;4.87;;
10450;SDS011;5273;51.290;6.918;2023-03-01T00:03:54;7.73;;;4.57;;
10450;SDS011;5273;51.290;6.918;2023-03-01T00:06:22;8.40;;;5.10;;
10450;SDS011;5273;51.290;6.918;2023-03-01T00:08:50;7.20;;;5.37;;
10450;SDS011;5273;51.290;6.918;2023-03-01T00:11:18;7.00;;;5.10;;
10450;SDS011;5273;51.290;6.918;2023-03-01T00:13:47;8.30;;;5.83;;
10450;SDS011;5273;51.290;6.918;2023-03-01T00:16:17;11.20;;;5.30;;
10450;SDS011;5273;51.290;6.918;2023-03-01T00:18:45;7.43;;;5.60;;
10450;SDS011;5273;51.290;6.918;2023-03-01T00:21:12;11.23;;;5.97;;
10450;SDS011;5273;51.290;6.918;2023-03-01T00:23:39;8.67;;;6.03;;
10450;SDS011;5273;51.290;6.918;2023-03-01T00:26:08;7.73;;;5.20;;
10450;SDS011;5273;51.290;6.918;2023-03-01T00:28:38;8.57;;;5.47;;
10450;SDS011;5273;51.290;6.918;2023-03-01T00:31:05;7.53;;;5.10;;
10450;SDS011;5273;51.290;6.918;2023-03-01T00:33:33;10.73;;;5.30;;
10450;SDS011;5273;51.290;6.918;2023-03-01T00:36:01;9.53;;;6.00;;
10450;SDS011;5273;51.290;6.918;2023-03-01T00:38:28;8.53;;;5.53;;
10450;SDS011;5273;51.290;6.918;2023-03-01T00:40:56;8.77;;;5.90;;
10450;SDS011;5273;51.290;6.918;2023-03-01T00:43:31;8.60;;;6.00;;
10450;SDS011;5273;51.290;6.918;2023-03-01T00:46:01;7.77;;;5.50;;
10450;SDS011;5273;51.290;6.918;2023-03-01T00:48:28;10.27;;;6.20;;
10450;SDS011;5273;51.290;6.918;2023-03-01T00:50:55;9.57;;;5.90;;
10450;SDS011;5273;51.290;6.918;2023-03-01T00:53:22;13.03;;;6.60;;
10450;SDS011;5273;51.290;6.918;2023-03-01T00:55:49;16.57;;;6.43;;
10450;SDS011;5273;51.290;6.918;2023-03-01T00:58:17;9.70;;;6.33;;
10450;SDS011;5273;51.290;6.918;2023-03-01T01:00:45;10.73;;;6.40;;
10450;SDS011;5273;51.290;6.918;2023-03-01T01:03:12;10.30;;;7.07;;
10450;SDS011;5273;51.290;6.918;2023-03-01T01:05:39;10.87;;;6.73;;
10450;SDS011;5273;51.290;6.918;2023-03-01T01:08:06;11.97;;;6.00;;
10450;SDS011;5273;51.290;6.918;2023-03-01T01:10:33;9.87;;;6.70;;
10450;SDS011;5273;51.290;6.918;2023-03-01T01:13:00;9.70;;;6.37;;
10450;SDS011;5273;51.290;6.918;2023-03-01T01:15:28;9.40;;;6.40;;
10450;SDS011;5273;51.290;6.918;2023-03-01T01:17:56;13.00;;;6.30;;
10450;SDS011;5273;51.290;6.918;2023-03-01T01:20:23;11.37;;;6.67;;
10450;SDS011;5273;51.290;6.918;2023-03-01T01:22:50;7.57;;;5.80;;
10450;SDS011;5273;51.290;6.918;2023-03-01T01:25:17;8.97;;;6.60;;
10450;SDS011;5273;51.290;6.918;2023-03-01T01:27:44;10.07;;;6.77;;
10450;SDS011;5273;51.290;6.918;2023-03-01T01:30:12;9.60;;;6.47;;
10450;SDS011;5273;51.290;6.918;2023-03-01T01:32:39;10.07;;;6.83;;
10450;SDS011;5273;51.290;6.918;2023-03-01T01:35:07;7.80;;;6.07;;
10450;SDS011;5273;51.290;6.918;2023-03-01T01:37:34;11.63;;;6.80;;
10450;SDS011;5273;51.290;6.918;2023-03-01T01:40:02;9.40;;;6.63;;
10450;SDS011;5273;51.290;6.918;2023-03-01T01:42:30;7.83;;;5.77;;
10450;SDS011;5273;51.290;6.918;2023-03-01T01:48:02;8.87;;;5.93;;
10450;SDS011;5273;51.290;6.918;2023-03-01T01:50:34;8.30;;;6.37;;
10450;SDS011;5273;51.290;6.918;2023-03-01T01:53:05;9.57;;;6.53;;
10450;SDS011;5273;51.290;6.918;2023-03-01T01:55:35;10.87;;;6.07;;
10450;SDS011;5273;51.290;6.918;2023-03-01T01:58:06;11.93;;;6.47;;
10450;SDS011;5273;51.290;6.918;2023-03-01T02:00:35;9.07;;;6.53;;
10450;SDS011;5273;51.290;6.918;2023-03-01T02:03:04;9.00;;;6.67;;
10450;SDS011;5273;51.290;6.918;2023-03-01T02:05:36;10.67;;;6.43;;
10450;SDS011;5273;51.290;6.918;2023-03-01T02:08:09;9.70;;;6.63;;
10450;SDS011;5273;51.290;6.918;2023-03-01T02:10:37;10.00;;;7.30;;
10450;SDS011;5273;51.290;6.918;2023-03-01T02:13:04;10.50;;;6.53;;
10450;SDS011;5273;51.290;6.918;2023-03-01T02:15:31;10.00;;;6.73;;
10450;SDS011;5273;51.290;6.918;2023-03-01T02:17:59;12.20;;;6.33;;
10450;SDS011;5273;51.290;6.918;2023-03-01T02:20:29;9.90;;;7.40;;
10450;SDS011;5273;51.290;6.918;2023-03-01T02:23:02;10.43;;;6.80;;
10450;SDS011;5273;51.290;6.918;2023-03-01T02:25:33;11.30;;;7.07;;
10450;SDS011;5273;51.290;6.918;2023-03-01T02:28:08;10.23;;;6.53;;
10450;SDS011;5273;51.290;6.918;2023-03-01T02:30:45;9.47;;;6.43;;
10450;SDS011;5273;51.290;6.918;2023-03-01T02:33:27;7.87;;;6.20;;
10450;SDS011;5273;51.290;6.918;2023-03-01T02:35:57;12.00;;;7.23;;
10450;SDS011;5273;51.290;6.918;2023-03-01T02:38:26;11.43;;;6.87;;
10450;SDS011;5273;51.290;6.918;2023-03-01T02:40:54;12.10;;;6.80;;
10450;SDS011;5273;51.290;6.918;2023-03-01T02:43:23;13.07;;;6.80;;
10450;SDS011;5273;51.290;6.918;2023-03-01T02:45:57;9.47;;;6.47;;
10450;SDS011;5273;51.290;6.918;2023-03-01T02:48:25;8.70;;;6.57;;
10450;SDS011;5273;51.290;6.918;2023-03-01T02:50:55;7.17;;;6.00;;
10450;SDS011;5273;51.290;6.918;2023-03-01T02:53:32;8.80;;;6.63;;
10450;SDS011;5273;51.290;6.918;2023-03-01T02:56:05;11.37;;;7.17;;
10450;SDS011;5273;51.290;6.918;2023-03-01T02:58:39;9.33;;;7.57;;
10450;SDS011;5273;51.290;6.918;2023-03-01T03:01:10;12.23;;;6.90;;
10450;SDS011;5273;51.290;6.918;2023-03-01T03:03:38;10.20;;;6.80;;
10450;SDS011;5273;51.290;6.918;2023-03-01T03:06:05;9.83;;;7.33;;
10450;SDS011;5273;51.290;6.918;2023-03-01T03:08:33;9.07;;;7.03;;
10450;SDS011;5273;51.290;6.918;2023-03-01T03:11:00;11.57;;;6.83;;
10450;SDS011;5273;51.290;6.918;2023-03-01T03:13:27;12.17;;;7.37;;
10450;SDS011;5273;51.290;6.918;2023-03-01T03:15:56;13.23;;;7.37;;
10450;SDS011;5273;51.290;6.918;2023-03-01T03:18:23;13.53;;;7.20;;
10450;SDS011;5273;51.290;6.918;2023-03-01T03:20:51;13.80;;;7.50;;
10450;SDS011;5273;51.290;6.918;2023-03-01T03:23:19;8.67;;;6.63;;
10450;SDS011;5273;51.290;6.918;2023-03-01T03:25:47;9.10;;;6.70;;
10450;SDS011;5273;51.290;6.918;2023-03-01T03:28:15;13.37;;;7.13;;
10450;SDS011;5273;51.290;6.918;2023-03-01T03:30:42;12.23;;;7.30;;
10450;SDS011;5273;51.290;6.918;2023-03-01T03:33:11;11.80;;;7.60;;
10450;SDS011;5273;51.290;6.918;2023-03-01T03:35:40;10.97;;;6.83;;
10450;SDS011;5273;51.290;6.918;2023-03-01T03:38:08;11.80;;;7.57;;
10450;SDS011;5273;51.290;6.918;2023-03-01T03:40:41;10.47;;;6.83;;
10450;SDS011;5273;51.290;6.918;2023-03-01T03:43:10;13.90;;;7.83;;
10450;SDS011;5273;51.290;6.918;2023-03-01T03:45:38;12.33;;;7.67;;
10450;SDS011;5273;51.290;6.918;2023-03-01T03:48:06;10.87;;;6.70;;
10450;SDS011;5273;51.290;6.918;2023-03-01T03:50:36;16.97;;;7.50;;
10450;SDS011;5273;51.290;6.918;2023-03-01T03:53:04;12.03;;;7.20;;
10450;SDS011;5273;51.290;6.918;2023-03-01T03:55:32;12.03;;;7.47;;
10450;SDS011;5273;51.290;6.918;2023-03-01T03:57:59;12.53;;;7.20;;
10450;SDS011;5273;51.290;6.918;2023-03-01T04:00:32;11.90;;;7.37;;
10450;SDS011;5273;51.290;6.918;2023-03-01T04:03:00;12.37;;;6.53;;
10450;SDS011;5273;51.290;6.918;2023-03-01T04:05:27;10.67;;;7.57;;
10450;SDS011;5273;51.290;6.918;2023-03-01T04:07:56;13.57;;;7.33;;
10450;SDS011;5273;51.290;6.918;2023-03-01T04:10:32;9.43;;;6.80;;
10450;SDS011;5273;51.290;6.918;2023-03-01T04:13:00;12.83;;;6.83;;
10450;SDS011;5273;51.290;6.918;2023-03-01T04:15:27;11.60;;;7.37;;
10450;SDS011;5273;51.290;6.918;2023-03-01T04:17:54;9.30;;;6.70;;
10450;SDS011;5273;51.290;6.918;2023-03-01T04:20:22;12.43;;;7.90;;
10450;SDS011;5273;51.290;6.918;2023-03-01T04:22:50;10.30;;;6.97;;
10450;SDS011;5273;51.290;6.918;2023-03-01T04:25:19;11.37;;;7.57;;
10450;SDS011;5273;51.290;6.918;2023-03-01T04:27:46;9.53;;;6.80;;
10450;SDS011;5273;51.290;6.918;2023-03-01T04:30:14;11.63;;;7.63;;
10450;SDS011;5273;51.290;6.918;2023-03-01T04:32:41;10.17;;;7.30;;
10450;SDS011;5273;51.290;6.918;2023-03-01T04:35:08;12.43;;;6.93;;
10450;SDS011;5273;51.290;6.918;2023-03-01T04:37:35;10.93;;;7.93;;
10450;SDS011;5273;51.290;6.918;2023-03-01T04:40:03;10.53;;;6.90;;
10450;SDS011;5273;51.290;6.918;2023-03-01T04:42:39;11.77;;;7.77;;
10450;SDS011;5273;51.290;6.918;2023-03-01T04:45:06;9.50;;;6.93;;
10450;SDS011;5273;51.290;6.918;2023-03-01T04:47:38;11.37;;;7.03;;
10450;SDS011;5273;51.290;6.918;2023-03-01T04:50:05;11.53;;;6.93;;
10450;SDS011;5273;51.290;6.918;2023-03-01T04:52:33;10.33;;;7.20;;
10450;SDS011;5273;51.290;6.918;2023-03-01T04:55:01;11.80;;;6.73;;
10450;SDS011;5273;51.290;6.918;2023-03-01T04:57:28;13.90;;;7.47;;
10450;SDS011;5273;51.290;6.918;2023-03-01T04:59:57;12.43;;;7.23;;
10450;SDS011;5273;51.290;6.918;2023-03-01T05:02:24;9.10;;;6.27;;
10450;SDS011;5273;51.290;6.918;2023-03-01T05:04:51;10.90;;;6.43;;
10450;SDS011;5273;51.290;6.918;2023-03-01T05:07:22;12.00;;;7.13;;
10450;SDS011;5273;51.290;6.918;2023-03-01T05:09:51;11.80;;;7.97;;
10450;SDS011;5273;51.290;6.918;2023-03-01T05:12:19;14.97;;;7.60;;
10450;SDS011;5273;51.290;6.918;2023-03-01T05:14:46;8.87;;;6.57;;
10450;SDS011;5273;51.290;6.918;2023-03-01T05:17:14;11.23;;;7.17;;
10450;SDS011;5273;51.290;6.918;2023-03-01T05:19:41;15.83;;;7.30;;
10450;SDS011;5273;51.290;6.918;2023-03-01T05:22:08;12.33;;;7.00;;
10450;SDS011;5273;51.290;6.918;2023-03-01T05:24:35;12.90;;;7.70;;
10450;SDS011;5273;51.290;6.918;2023-03-01T05:27:03;12.37;;;7.67;;
10450;SDS011;5273;51.290;6.918;2023-03-01T05:29:31;17.60;;;7.67;;
10450;SDS011;5273;51.290;6.918;2023-03-01T05:32:00;10.93;;;7.10;;
10450;SDS011;5273;51.290;6.918;2023-03-01T05:34:30;14.20;;;8.10;;
10450;SDS011;5273;51.290;6.918;2023-03-01T05:37:00;11.50;;;7.07;;
10450;SDS011;5273;51.290;6.918;2023-03-01T05:39:27;12.07;;;7.50;;
10450;SDS011;5273;51.290;6.918;2023-03-01T05:41:57;11.80;;;7.20;;
10450;SDS011;5273;51.290;6.918;2023-03-01T05:44:25;10.80;;;7.50;;
10450;SDS011;5273;51.290;6.918;2023-03-01T05:46:52;14.13;;;6.90;;
10450;SDS011;5273;51.290;6.918;2023-03-01T05:49:19;17.10;;;7.67;;
10450;SDS011;5273;51.290;6.918;2023-03-01T05:51:50;12.60;;;7.47;;
10450;SDS011;5273;51.290;6.918;2023-03-01T05:54:18;12.13;;;7.13;;
10450;SDS011;5273;51.290;6.918;2023-03-01T05:56:46;13.20;;;7.17;;
10450;SDS011;5273;51.290;6.918;2023-03-01T05:59:13;12.23;;;7.23;;
10450;SDS011;5273;51.290;6.918;2023-03-01T06:01:41;10.23;;;7.07;;
10450;SDS011;5273;51.290;6.918;2023-03-01T06:04:08;12.20;;;7.33;;
10450;SDS011;5273;51.290;6.918;2023-03-01T06:06:36;11.13;;;6.97;;
10450;SDS011;5273;51.290;6.918;2023-03-01T06:09:04;14.93;;;7.67;;
10450;SDS011;5273;51.290;6.918;2023-03-01T06:11:33;13.60;;;7.20;;
10450;SDS011;5273;51.290;6.918;2023-03-01T06:14:00;8.87;;;6.53;;
10450;SDS011;5273;51.290;6.918;2023-03-01T06:16:27;12.50;;;7.73;;
10450;SDS011;5273;51.290;6.918;2023-03-01T06:18:54;15.13;;;7.77;;
10450;SDS011;5273;51.290;6.918;2023-03-01T06:21:22;10.73;;;8.07;;
10450;SDS011;5273;51.290;6.918;2023-03-01T06:23:49;12.47;;;7.07;;
10450;SDS011;5273;51.290;6.918;2023-03-01T06:26:18;9.90;;;7.10;;
10450;SDS011;5273;51.290;6.918;2023-03-01T06:28:45;15.83;;;8.93;;
10450;SDS011;5273;51.290;6.918;2023-03-01T06:31:12;8.90;;;6.10;;
10450;SDS011;5273;51.290;6.918;2023-03-01T06:33:39;12.90;;;7.43;;
10450;SDS011;5273;51.290;6.918;2023-03-01T06:36:07;11.03;;;7.37;;
10450;SDS011;5273;51.290;6.918;2023-03-01T06:38:35;11.97;;;7.93;;
10450;SDS011;5273;51.290;6.918;2023-03-01T06:41:02;12.43;;;7.43;;
10450;SDS011;5273;51.290;6.918;2023-03-01T06:43:30;13.40;;;7.40;;
10450;SDS011;5273;51.290;6.918;2023-03-01T06:45:57;10.63;;;7.10;;
10450;SDS011;5273;51.290;6.918;2023-03-01T06:48:24;10.93;;;7.53;;
10450;SDS011;5273;51.290;6.918;2023-03-01T06:50:51;10.47;;;6.43;;
10450;SDS011;5273;51.290;6.918;2023-03-01T06:53:18;11.57;;;6.97;;
10450;SDS011;5273;51.290;6.918;2023-03-01T06:55:45;13.67;;;6.73;;
10450;SDS011;5273;51.290;6.918;2023-03-01T06:58:13;9.93;;;6.27;;
10450;SDS011;5273;51.290;6.918;2023-03-01T07:00:41;10.17;;;6.53;;
10450;SDS011;5273;51.290;6.918;2023-03-01T07:03:09;9.00;;;5.87;;
10450;SDS011;5273;51.290;6.918;2023-03-01T07:05:36;10.40;;;6.87;;
10450;SDS011;5273;51.290;6.918;2023-03-01T07:08:03;7.50;;;6.00;;
10450;SDS011;5273;51.290;6.918;2023-03-01T07:10:30;9.83;;;6.37;;
10450;SDS011;5273;51.290;6.918;2023-03-01T07:12:57;8.03;;;5.83;;
10450;SDS011;5273;51.290;6.918;2023-03-01T07:15:25;12.10;;;6.17;;
10450;SDS011;5273;51.290;6.918;2023-03-01T07:17:54;11.07;;;7.00;;
10450;SDS011;5273;51.290;6.918;2023-03-01T07:20:21;8.60;;;6.57;;
10450;SDS011;5273;51.290;6.918;2023-03-01T07:22:50;11.37;;;7.53;;
10450;SDS011;5273;51.290;6.918;2023-03-01T07:25:17;11.00;;;6.77;;
10450;SDS011;5273;51.290;6.918;2023-03-01T07:27:48;9.10;;;6.27;;
10450;SDS011;5273;51.290;6.918;2023-03-01T07:30:15;9.53;;;6.93;;
10450;SDS011;5273;51.290;6.918;2023-03-01T07:32:43;11.27;;;6.53;;
10450;SDS011;5273;51.290;6.918;2023-03-01T07:35:12;12.10;;;6.57;;
10450;SDS011;5273;51.290;6.918;2023-03-01T07:37:39;9.43;;;6.17;;
10450;SDS011;5273;51.290;6.918;2023-03-01T07:40:07;7.37;;;6.30;;
10450;SDS011;5273;51.290;6.918;2023-03-01T07:42:35;8.27;;;6.63;;
10450;SDS011;5273;51.290;6.918;2023-03-01T07:45:02;8.30;;;6.37;;
10450;SDS011;5273;51.290;6.918;2023-03-01T07:47:29;9.83;;;6.87;;
10450;SDS011;5273;51.290;6.918;2023-03-01T07:49:56;7.50;;;6.40;;
10450;SDS011;5273;51.290;6.918;2023-03-01T07:52:25;8.48;;;6.32;;
10450;SDS011;5273;51.290;6.918;2023-03-01T07:54:52;9.80;;;6.18;;
10450;SDS011;5273;51.290;6.918;2023-03-01T07:57:19;8.32;;;6.20;;
10450;SDS011;5273;51.290;6.918;2023-03-01T07:59:46;7.90;;;6.47;;
10450;SDS011;5273;51.290;6.918;2023-03-01T08:02:13;7.93;;;6.25;;
10450;SDS011;5273;51.290;6.918;2023-03-01T08:04:41;9.10;;;6.80;;
10450;SDS011;5273;51.290;6.918;2023-03-01T08:07:08;7.18;;;6.00;;
10450;SDS011;5273;51.290;6.918;2023-03-01T08:09:36;10.13;;;6.25;;
10450;SDS011;5273;51.290;6.918;2023-03-01T08:12:04;6.68;;;5.75;;
10450;SDS011;5273;51.290;6.918;2023-03-01T08:14:31;8.27;;;6.45;;
10450;SDS011;5273;51.290;6.918;2023-03-01T08:16:58;7.43;;;6.18;;
10450;SDS011;5273;51.290;6.918;2023-03-01T08:19:27;9.50;;;7.00;;
10450;SDS011;5273;51.290;6.918;2023-03-01T08:21:55;6.97;;;6.22;;
10450;SDS011;5273;51.290;6.918;2023-03-01T08:24:23;7.40;;;5.60;;
10450;SDS011;5273;51.290;6.918;2023-03-01T08:26:51;8.27;;;6.15;;
10450;SDS011;5273;51.290;6.918;2023-03-01T08:29:18;7.60;;;6.10;;
10450;SDS011;5273;51.290;6.918;2023-03-01T08:31:45;8.35;;;6.28;;
10450;SDS011;5273;51.290;6.918;2023-03-01T08:34:14;9.75;;;6.82;;
10450;SDS011;5273;51.290;6.918;2023-03-01T08:36:42;6.90;;;6.20;;
10450;SDS011;5273;51.290;6.918;2023-03-01T08:39:11;8.73;;;6.90;;
10450;SDS011;5273;51.290;6.918;2023-03-01T08:41:39;7.30;;;6.10;;
10450;SDS011;5273;51.290;6.918;2023-03-01T08:44:08;7.95;;;6.63;;
10450;SDS011;5273;51.290;6.918;2023-03-01T08:46:37;12.10;;;6.78;;
10450;SDS011;5273;51.290;6.918;2023-03-01T08:49:05;8.90;;;6.78;;
10450;SDS011;5273;51.290;6.918;2023-03-01T08:51:33;8.82;;;6.60;;
10450;SDS011;5273;51.290;6.918;2023-03-01T08:54:01;10.68;;;7.00;;
10450;SDS011;5273;51.290;6.918;2023-03-01T08:56:29;10.27;;;6.65;;
10450;SDS011;5273;51.290;6.918;2023-03-01T08:58:56;7.68;;;6.55;;
10450;SDS011;5273;51.290;6.918;2023-03-01T09:01:24;6.70;;;6.10;;
10450;SDS011;5273;51.290;6.918;2023-03-01T09:03:51;9.07;;;6.22;;
10450;SDS011;5273;51.290;6.918;2023-03-01T09:06:18;6.93;;;6.22;;
10450;SDS011;5273;51.290;6.918;2023-03-01T09:08:46;9.32;;;6.22;;
10450;SDS011;5273;51.290;6.918;2023-03-01T09:11:15;8.02;;;6.68;;
10450;SDS011;5273;51.290;6.918;2023-03-01T09:13:43;7.80;;;6.13;;
10450;SDS011;5273;51.290;6.918;2023-03-01T09:16:11;6.22;;;5.63;;
10450;SDS011;5273;51.290;6.918;2023-03-01T09:18:41;7.45;;;5.85;;
10450;SDS011;5273;51.290;6.918;2023-03-01T09:21:09;6.70;;;5.97;;
10450;SDS011;5273;51.290;6.918;2023-03-01T09:23:37;7.93;;;6.18;;
10450;SDS011;5273;51.290;6.918;2023-03-01T09:26:05;8.73;;;6.55;;
10450;SDS011;5273;51.290;6.918;2023-03-01T09:28:34;8.18;;;6.45;;
10450;SDS011;5273;51.290;6.918;2023-03-01T09:31:01;7.95;;;6.43;;
10450;SDS011;5273;51.290;6.918;2023-03-01T09:33:29;8.57;;;5.95;;
10450;SDS011;5273;51.290;6.918;2023-03-01T09:35:59;7.45;;;6.15;;
10450;SDS011;5273;51.290;6.918;2023-03-01T09:38:27;8.15;;;6.30;;
10450;SDS011;5273;51.290;6.918;2023-03-01T09:40:55;8.07;;;5.82;;
10450;SDS011;5273;51.290;6.918;2023-03-01T09:43:23;6.75;;;5.88;;
10450;SDS011;5273;51.290;6.918;2023-03-01T09:45:55;10.43;;;6.30;;
10450;SDS011;5273;51.290;6.918;2023-03-01T09:48:28;6.90;;;6.15;;
10450;SDS011;5273;51.290;6.918;2023-03-01T09:51:00;8.10;;;6.30;;
10450;SDS011;5273;51.290;6.918;2023-03-01T09:53:31;8.65;;;6.63;;
10450;SDS011;5273;51.290;6.918;2023-03-01T09:56:01;8.15;;;6.55;;
10450;SDS011;5273;51.290;6.918;2023-03-01T09:58:33;9.77;;;6.88;;
10450;SDS011;5273;51.290;6.918;2023-03-01T10:01:09;8.15;;;6.72;;
10450;SDS011;5273;51.290;6.918;2023-03-01T10:03:48;8.05;;;6.18;;
10450;SDS011;5273;51.290;6.918;2023-03-01T10:06:28;9.52;;;6.60;;
10450;SDS011;5273;51.290;6.918;2023-03-01T10:08:55;8.02;;;6.65;;
10450;SDS011;5273;51.290;6.918;2023-03-01T10:11:25;7.40;;;6.22;;
10450;SDS011;5273;51.290;6.918;2023-03-01T10:13:55;8.57;;;6.53;;
10450;SDS011;5273;51.290;6.918;2023-03-01T10:16:27;10.48;;;6.05;;
10450;SDS011;5273;51.290;6.918;2023-03-01T10:19:00;6.40;;;5.53;;
10450;SDS011;5273;51.290;6.918;2023-03-01T10:21:30;6.40;;;5.65;;
10450;SDS011;5273;51.290;6.918;2023-03-01T10:24:08;9.00;;;5.63;;
10450;SDS011;5273;51.290;6.918;2023-03-01T10:26:48;6.60;;;5.55;;
10450;SDS011;5273;51.290;6.918;2023-03-01T10:29:21;7.57;;;5.95;;
10450;SDS011;5273;51.290;6.918;2023-03-01T10:31:52;10.15;;;6.40;;
10450;SDS011;5273;51.290;6.918;2023-03-01T10:34:21;8.65;;;6.32;;
10450;SDS011;5273;51.290;6.918;2023-03-01T10:36:55;6.25;;;5.65;;
10450;SDS011;5273;51.290;6.918;2023-03-01T10:39:24;6.43;;;5.82;;
10450;SDS011;5273;51.290;6.918;2023-03-01T10:41:53;10.88;;;5.97;;
10450;SDS011;5273;51.290;6.918;2023-03-01T10:44:35;7.35;;;5.82;;
10450;SDS011;5273;51.290;6.918;2023-03-01T10:47:14;8.43;;;5.85;;
10450;SDS011;5273;51.290;6.918;2023-03-01T10:49:51;7.05;;;5.80;;
10450;SDS011;5273;51.290;6.918;2023-03-01T10:52:25;7.82;;;5.68;;
10450;SDS011;5273;51.290;6.918;2023-03-01T10:54:55;7.82;;;5.75;;
10450;SDS011;5273;51.290;6.918;2023-03-01T10:57:34;8.70;;;6.00;;
10450;SDS011;5273;51.290;6.918;2023-03-01T11:02:48;8.32;;;6.10;;
10450;SDS011;5273;51.290;6.918;2023-03-01T11:05:18;7.00;;;6.20;;
10450;SDS011;5273;51.290;6.918;2023-03-01T11:07:50;8.18;;;5.60;;
10450;SDS011;5273;51.290;6.918;2023-03-01T11:10:20;6.35;;;5.50;;
10450;SDS011;5273;51.290;6.918;2023-03-01T11:12:48;10.70;;;5.63;;
10450;SDS011;5273;51.290;6.918;2023-03-01T11:15:19;10.07;;;5.90;;
10450;SDS011;5273;51.290;6.918;2023-03-01T11:17:49;10.23;;;6.00;;
10450;SDS011;5273;51.290;6.918;2023-03-01T11:20:19;6.77;;;5.00;;
10450;SDS011;5273;51.290;6.918;2023-03-01T11:22:53;9.17;;;6.10;;
10450;SDS011;5273;51.290;6.918;2023-03-01T11:25:23;9.47;;;6.47;;
10450;SDS011;5273;51.290;6.918;2023-03-01T11:27:51;7.37;;;5.60;;
10450;SDS011;5273;51.290;6.918;2023-03-01T11:30:20;10.70;;;6.40;;
10450;SDS011;5273;51.290;6.918;2023-03-01T11:32:54;9.27;;;5.63;;
10450;SDS011;5273;51.290;6.918;2023-03-01T11:35:27;9.57;;;6.83;;
10450;SDS011;5273;51.290;6.918;2023-03-01T11:37:59;8.80;;;6.30;;
10450;SDS011;5273;51.290;6.918;2023-03-01T11:40:39;9.43;;;5.77;;
10450;SDS011;5273;51.290;6.918;2023-03-01T11:43:11;7.90;;;5.63;;
10450;SDS011;5273;51.290;6.918;2023-03-01T11:45:47;9.10;;;5.77;;
10450;SDS011;5273;51.290;6.918;2023-03-01T11:48:28;8.47;;;6.57;;
10450;SDS011;5273;51.290;6.918;2023-03-01T11:51:17;7.53;;;6.10;;
10450;SDS011;5273;51.290;6.918;2023-03-01T11:53:57;7.10;;;5.13;;
10450;SDS011;5273;51.290;6.918;2023-03-01T11:56:34;9.20;;;5.90;;
10450;SDS011;5273;51.290;6.918;2023-03-01T12:02:19;7.23;;;5.63;;
10450;SDS011;5273;51.290;6.918;2023-03-01T12:05:20;7.07;;;5.73;;
10450;SDS011;5273;51.290;6.918;2023-03-01T12:07:59;9.13;;;5.30;;
10450;SDS011;5273;51.290;6.918;2023-03-01T12:10:35;8.60;;;5.20;;
10450;SDS011;5273;51.290;6.918;2023-03-01T12:13:17;7.80;;;5.70;;
10450;SDS011;5273;51.290;6.918;2023-03-01T12:16:19;8.33;;;4.73;;
10450;SDS011;5273;51.290;6.918;2023-03-01T12:19:08;7.63;;;5.63;;
10450;SDS011;5273;51.290;6.918;2023-03-01T12:21:51;8.07;;;5.30;;
10450;SDS011;5273;51.290;6.918;2023-03-01T12:27:32;8.13;;;5.50;;
10450;SDS011;5273;51.290;6.918;2023-03-01T12:30:16;8.47;;;5.40;;
10450;SDS011;5273;51.290;6.918;2023-03-01T12:32:55;9.53;;;5.43;;
10450;SDS011;5273;51.290;6.918;2023-03-01T12:35:35;8.83;;;5.60;;
10450;SDS011;5273;51.290;6.918;2023-03-01T12:38:18;7.00;;;5.37;;
10450;SDS011;5273;51.290;6.918;2023-03-01T12:41:05;9.87;;;5.50;;
10450;SDS011;5273;51.290;6.918;2023-03-01T12:44:01;7.40;;;5.43;;
10450;SDS011;5273;51.290;6.918;2023-03-01T12:46:40;9.53;;;6.10;;
10450;SDS011;5273;51.290;6.918;2023-03-01T12:49:31;10.83;;;5.50;;
10450;SDS011;5273;51.290;6.918;2023-03-01T12:52:01;7.83;;;5.77;;
10450;SDS011;5273;51.290;6.918;2023-03-01T12:54:35;6.77;;;5.33;;
10450;SDS011;5273;51.290;6.918;2023-03-01T12:57:06;6.63;;;4.60;;
10450;SDS011;5273;51.290;6.918;2023-03-01T12:59:45;10.40;;;5.53;;
10450;SDS011;5273;51.290;6.918;2023-03-01T13:02:23;8.00;;;5.57;;
10450;SDS011;5273;51.290;6.918;2023-03-01T13:04:54;11.53;;;5.73;;
10450;SDS011;5273;51.290;6.918;2023-03-01T13:07:34;10.50;;;5.57;;
10450;SDS011;5273;51.290;6.918;2023-03-01T13:10:09;6.43;;;4.73;;
10450;SDS011;5273;51.290;6.918;2023-03-01T13:12:47;23.47;;;6.60;;
10450;SDS011;5273;51.290;6.918;2023-03-01T13:15:25;6.70;;;5.30;;
10450;SDS011;5273;51.290;6.918;2023-03-01T13:17:54;10.97;;;5.83;;
10450;SDS011;5273;51.290;6.918;2023-03-01T13:20:24;8.97;;;5.60;;
10450;SDS011;5273;51.290;6.918;2023-03-01T13:23:00;10.00;;;5.90;;
10450;SDS011;5273;51.290;6.918;2023-03-01T13:25:30;8.57;;;5.40;;
10450;SDS011;5273;51.290;6.918;2023-03-01T13:30:58;8.00;;;5.20;;
10450;SDS011;5273;51.290;6.918;2023-03-01T13:33:39;7.90;;;5.47;;
10450;SDS011;5273;51.290;6.918;2023-03-01T13:36:08;8.13;;;5.30;;
10450;SDS011;5273;51.290;6.918;2023-03-01T13:38:41;6.87;;;5.20;;
10450;SDS011;5273;51.290;6.918;2023-03-01T13:41:12;7.83;;;5.70;;
10450;SDS011;5273;51.290;6.918;2023-03-01T13:43:40;6.30;;;5.40;;
10450;SDS011;5273;51.290;6.918;2023-03-01T13:46:11;9.17;;;5.60;;
10450;SDS011;5273;51.290;6.918;2023-03-01T13:48:42;9.20;;;5.47;;
10450;SDS011;5273;51.290;6.918;2023-03-01T13:51:11;5.70;;;5.10;;
10450;SDS011;5273;51.290;6.918;2023-03-01T13:53:39;6.93;;;5.20;;
10450;SDS011;5273;51.290;6.918;2023-03-01T13:56:11;11.43;;;5.60;;
10450;SDS011;5273;51.290;6.918;2023-03-01T13:58:44;7.57;;;4.80;;
10450;SDS011;5273;51.290;6.918;2023-03-01T14:01:22;11.07;;;5.63;;
10450;SDS011;5273;51.290;6.918;2023-03-01T14:03:51;8.83;;;5.63;;
10450;SDS011;5273;51.290;6.918;2023-03-01T14:06:21;8.07;;;5.63;;
10450;SDS011;5273;51.290;6.918;2023-03-01T14:08:52;9.57;;;5.77;;
10450;SDS011;5273;51.290;6.918;2023-03-01T14:11:33;8.30;;;5.20;;
10450;SDS011;5273;51.290;6.918;2023-03-01T14:14:25;7.10;;;4.83;;
10450;SDS011;5273;51.290;6.918;2023-03-01T14:17:05;9.03;;;5.27;;
10450;SDS011;5273;51.290;6.918;2023-03-01T14:19:54;9.73;;;5.80;;
10450;SDS011;5273;51.290;6.918;2023-03-01T14:22:23;6.20;;;4.27;;
10450;SDS011;5273;51.290;6.918;2023-03-01T14:24:54;10.03;;;5.77;;
10450;SDS011;5273;51.290;6.918;2023-03-01T14:27:22;7.63;;;5.23;;
10450;SDS011;5273;51.290;6.918;2023-03-01T14:29:55;7.27;;;5.27;;
10450;SDS011;5273;51.290;6.918;2023-03-01T14:32:25;7.70;;;5.47;;
10450;SDS011;5273;51.290;6.918;2023-03-01T14:34:53;8.40;;;5.13;;
10450;SDS011;5273;51.290;6.918;2023-03-01T14:37:21;7.17;;;5.23;;
10450;SDS011;5273;51.290;6.918;2023-03-01T14:39:50;9.33;;;5.47;;
10450;SDS011;5273;51.290;6.918;2023-03-01T14:42:18;8.13;;;5.60;;
10450;SDS011;5273;51.290;6.918;2023-03-01T14:44:47;6.37;;;4.63;;
10450;SDS011;5273;51.290;6.918;2023-03-01T14:47:15;7.10;;;4.87;;
10450;SDS011;5273;51.290;6.918;2023-03-01T14:49:54;9.27;;;5.20;;
10450;SDS011;5273;51.290;6.918;2023-03-01T14:52:25;5.67;;;4.13;;
10450;SDS011;5273;51.290;6.918;2023-03-01T14:54:59;5.93;;;5.07;;
10450;SDS011;5273;51.290;6.918;2023-03-01T14:57:26;8.90;;;4.87;;
10450;SDS011;5273;51.290;6.918;2023-03-01T14:59:54;9.27;;;5.10;;
10450;SDS011;5273;51.290;6.918;2023-03-01T15:02:24;10.93;;;5.60;;
10450;SDS011;5273;51.290;6.918;2023-03-01T15:04:55;7.20;;;4.80;;
10450;SDS011;5273;51.290;6.918;2023-03-01T15:07:26;8.33;;;5.43;;
10450;SDS011;5273;51.290;6.918;2023-03-01T15:09:56;8.27;;;5.60;;
10450;SDS011;5273;51.290;6.918;2023-03-01T15:12:24;8.10;;;4.90;;
10450;SDS011;5273;51.290;6.918;2023-03-01T15:18:02;7.13;;;4.50;;
10450;SDS011;5273;51.290;6.918;2023-03-01T15:20:32;10.93;;;5.17;;
10450;SDS011;5273;51.290;6.918;2023-03-01T15:23:03;9.07;;;4.53;;
10450;SDS011;5273;51.290;6.918;2023-03-01T15:25:30;5.93;;;4.27;;
10450;SDS011;5273;51.290;6.918;2023-03-01T15:27:59;6.77;;;4.37;;
10450;SDS011;5273;51.290;6.918;2023-03-01T15:30:28;5.40;;;4.53;;
10450;SDS011;5273;51.290;6.918;2023-03-01T15:33:19;6.17;;;4.57;;